Aeroporto :
LOGIN :

Iscrizione | Disclaimer

   EN    FR    IT 

 










Sommario :    VFR   VFR Marginale   IFR   IFR Intensivo   IFR Molto Intensivo
Visibilità : 
Base nubi : 
>= 8 km
>= 3000ft
5 / 8 km
1000 / 3000 ft
1500m / 5 km
500 / 1000 ft
800 / 1500m
200 / 500 ft
< 800m
< 200 ft
Simboli :   Temporali  Nebbia  Neve Forte  Precipitazioni Forti  Vento > 20 kt
SIGMETs :   Varie  Temporali  Ghiacco  Turbolenza  Onda orograficha  Ceneri Vulcaniche






- Altitudine del aeroporto : 446 ft
- Codice IATA : VNE


LFRV - Vannes-Meucon

ULTIMO METAR :
  • 271730Z AUTO VRB03KT 3300 BR VV/// 11/11 Q1012

METARs OBSOLETI :
  • 271700Z AUTO VRB02KT 9999 OVC002 11/11 Q1013
  • 271630Z AUTO VRB03KT 9999 OVC002 11/11 Q1013
  • 271600Z AUTO 27005KT 230V300 9999 SCT003/// BKN030/// BKN058/// ///TCU 11/11 Q1012
  • 271530Z AUTO 27008KT 240V300 9999 RA BKN005/// BKN020/// OVC074/// ///CB 12/11 Q1012
  • 271500Z AUTO 24007KT 200V280 9999 -RA OVC003/// ///CB 12/12 Q1012
  • 271430Z AUTO 24006KT 210V270 7000 -RA OVC003/// ///TCU 13/12 Q1013

TAF N/A



MetMap, La meteo Aeronautica in un colpo d'occhio ! - Copyright ORBIFLY Dicembre 2007 - Disclaimer

ORBIFLY MET'MAP TEAM :

Programmazione e sviluppo : Alexandra Zaïnal
Concezione : Baudouin d'Aumeries
Supporto tecnico e logistico : Manuel Goepfert
Aiuto : Marc-Olivier Méhu
Aiuto per la traduzione : Arnaldo La Scala




FONTI E CREDITI :

   NOAA